Time;durP1;ratioP1;P1;durP2;ratioP2;P2;SDS_P1;SDS_P2;PMS_P1;PMS_P2;Temp;Humidity;BMP_temperature;BMP_pressure;BME280_temperature;BME280_humidity;BME280_pressure;Samples;Min_cycle;Max_cycle;Signal;HPM_P1;HPM_P2
2022/08/22 00:00:15;;;;;;;4.95;1.27;;;;;;;;;;5057764;28;20028;-66
2022/08/22 00:03:13;;;;;;;5.82;1.42;;;;;;;;;;5053137;28;20502;-65
2022/08/22 00:05:40;;;;;;;9.32;2.05;;;;;;;;;;4967793;28;20426;-66
2022/08/22 00:08:17;;;;;;;5.78;1.50;;;;;;;;;;4970350;28;20094;-66
2022/08/22 00:10:55;;;;;;;4.35;1.30;;;;;;;;;;4966044;28;20039;-66
2022/08/22 00:13:26;;;;;;;4.07;1.20;;;;;;;;;;4970515;28;20077;-66
2022/08/22 00:15:58;;;;;;;5.55;1.58;;;;;;;;;;4968810;28;20041;-65
2022/08/22 00:18:34;;;;;;;4.85;1.50;;;;;;;;;;4969569;28;20042;-65
2022/08/22 00:21:36;;;;;;;7.18;1.77;;;;;;;;;;4967582;28;20116;-65
2022/08/22 00:24:21;;;;;;;6.22;1.48;;;;;;;;;;4919725;29;20047;-65
2022/08/22 00:26:53;;;;;;;4.82;1.30;;;;;;;;;;4915674;29;20035;-65
2022/08/22 00:29:29;;;;;;;7.57;1.65;;;;;;;;;;4918881;29;20047;-65
2022/08/22 00:32:07;;;;;;;7.03;1.50;;;;;;;;;;4918224;29;20511;-65
2022/08/22 00:34:45;;;;;;;7.88;1.48;;;;;;;;;;4915984;29;20062;-64
2022/08/22 00:37:20;;;;;;;5.07;1.30;;;;;;;;;;4919371;29;20445;-67
2022/08/22 00:39:52;;;;;;;5.97;1.58;;;;;;;;;;4913990;29;20439;-65
2022/08/22 00:42:19;;;;;;;6.43;1.52;;;;;;;;;;4989712;28;20603;-65
2022/08/22 00:44:57;;;;;;;4.45;1.40;;;;;;;;;;4998901;28;20402;-65
2022/08/22 00:47:30;;;;;;;6.75;1.40;;;;;;;;;;5003612;28;20037;-65
2022/08/22 00:50:05;;;;;;;5.38;1.30;;;;;;;;;;5001927;28;20037;-65
2022/08/22 00:52:31;;;;;;;6.40;1.42;;;;;;;;;;4979683;28;20522;-66
2022/08/22 00:55:02;;;;;;;6.32;1.48;;;;;;;;;;4997902;28;20064;-65
2022/08/22 00:57:29;;;;;;;5.28;1.40;;;;;;;;;;4994439;28;20029;-65
2022/08/22 01:00:08;;;;;;;7.10;1.65;;;;;;;;;;5057543;28;20039;-66
2022/08/22 01:02:40;;;;;;;5.57;1.40;;;;;;;;;;5049909;28;20028;-66
2022/08/22 01:05:24;;;;;;;4.43;1.40;;;;;;;;;;5052969;28;20035;-66
2022/08/22 01:08:09;;;;;;;5.20;1.50;;;;;;;;;;5055056;28;20339;-66
2022/08/22 01:10:50;;;;;;;3.63;1.02;;;;;;;;;;5056851;28;20039;-67
2022/08/22 01:13:36;;;;;;;4.90;1.40;;;;;;;;;;5052530;28;20032;-66
2022/08/22 01:16:15;;;;;;;4.63;1.20;;;;;;;;;;5054255;28;20439;-66
2022/08/22 01:18:49;;;;;;;5.07;1.20;;;;;;;;;;5071483;28;20044;-66
2022/08/22 01:21:15;;;;;;;3.25;1.10;;;;;;;;;;5053167;28;20033;-66
2022/08/22 01:23:50;;;;;;;5.28;1.15;;;;;;;;;;5052292;28;20479;-66
2022/08/22 01:26:34;;;;;;;4.78;1.30;;;;;;;;;;5055377;28;20529;-66
2022/08/22 01:29:15;;;;;;;7.57;1.80;;;;;;;;;;5057868;28;20155;-66
2022/08/22 01:31:44;;;;;;;7.20;1.52;;;;;;;;;;5056074;28;20039;-66
2022/08/22 01:34:30;;;;;;;4.90;1.10;;;;;;;;;;5058688;28;20028;-66
2022/08/22 01:37:15;;;;;;;7.63;1.50;;;;;;;;;;5054133;28;20078;-66
2022/08/22 01:39:47;;;;;;;5.65;1.40;;;;;;;;;;5053882;28;20031;-66
2022/08/22 01:42:22;;;;;;;5.35;1.27;;;;;;;;;;5057605;28;20032;-66
2022/08/22 01:44:57;;;;;;;3.43;1.10;;;;;;;;;;5056186;28;20281;-66
2022/08/22 01:47:33;;;;;;;5.23;1.30;;;;;;;;;;5065171;28;20749;-66
2022/08/22 01:50:09;;;;;;;4.53;1.30;;;;;;;;;;5057454;28;20489;-66
2022/08/22 01:52:55;;;;;;;4.82;1.25;;;;;;;;;;5066508;28;20066;-66
2022/08/22 01:55:27;;;;;;;5.38;1.27;;;;;;;;;;5030488;28;20045;-66
2022/08/22 01:58:02;;;;;;;4.50;1.20;;;;;;;;;;5054833;28;20800;-66
2022/08/22 02:00:32;;;;;;;4.22;1.10;;;;;;;;;;5057285;28;20498;-66
2022/08/22 02:03:16;;;;;;;7.63;1.52;;;;;;;;;;5060124;28;20047;-66
2022/08/22 02:06:05;;;;;;;4.45;1.10;;;;;;;;;;5056912;28;20845;-65
2022/08/22 02:08:46;;;;;;;6.35;1.60;;;;;;;;;;5049342;28;20573;-66
2022/08/22 02:11:30;;;;;;;4.95;1.38;;;;;;;;;;5054217;28;20055;-66
2022/08/22 02:13:59;;;;;;;6.80;1.35;;;;;;;;;;5056880;28;20021;-65
2022/08/22 02:16:35;;;;;;;5.93;1.23;;;;;;;;;;5056256;28;21089;-65
2022/08/22 02:19:08;;;;;;;4.57;1.30;;;;;;;;;;5059626;28;20226;-65
2022/08/22 02:21:54;;;;;;;5.13;1.25;;;;;;;;;;5051946;28;20020;-65
2022/08/22 02:24:32;;;;;;;3.80;1.38;;;;;;;;;;5058325;28;20119;-65
2022/08/22 02:27:04;;;;;;;7.95;1.52;;;;;;;;;;5070427;28;20386;-65
2022/08/22 02:29:35;;;;;;;5.35;1.35;;;;;;;;;;5048661;28;20054;-65
2022/08/22 02:32:06;;;;;;;6.20;1.25;;;;;;;;;;5057660;28;20031;-66
2022/08/22 02:34:37;;;;;;;5.43;1.40;;;;;;;;;;5049847;28;20024;-65
2022/08/22 02:37:06;;;;;;;4.68;1.10;;;;;;;;;;5059869;28;20435;-65
2022/08/22 02:39:40;;;;;;;5.03;1.10;;;;;;;;;;5060810;28;20033;-66
2022/08/22 02:42:12;;;;;;;6.93;1.50;;;;;;;;;;5053683;28;20028;-65
2022/08/22 02:44:41;;;;;;;6.70;1.38;;;;;;;;;;5047878;28;20029;-66
2022/08/22 02:47:09;;;;;;;3.20;1.20;;;;;;;;;;5045059;28;20090;-66
2022/08/22 02:49:53;;;;;;;5.03;1.25;;;;;;;;;;5048368;28;20036;-65
2022/08/22 02:52:25;;;;;;;5.82;1.20;;;;;;;;;;5050122;28;20048;-65
2022/08/22 02:54:51;;;;;;;3.38;1.25;;;;;;;;;;5047784;28;20059;-65
2022/08/22 02:57:33;;;;;;;5.00;1.20;;;;;;;;;;5051305;28;20027;-65
2022/08/22 03:00:18;;;;;;;5.95;1.30;;;;;;;;;;5053156;28;20729;-65
2022/08/22 03:02:44;;;;;;;3.67;1.13;;;;;;;;;;5045296;28;22282;-66
2022/08/22 03:05:26;;;;;;;6.13;1.05;;;;;;;;;;5054334;28;20029;-65
2022/08/22 03:08:11;;;;;;;6.10;1.48;;;;;;;;;;5068954;28;20043;-66
2022/08/22 03:10:45;;;;;;;3.92;1.13;;;;;;;;;;5045982;28;20020;-67
2022/08/22 03:13:13;;;;;;;6.63;1.20;;;;;;;;;;5061475;28;20092;-67
2022/08/22 03:15:39;;;;;;;4.53;1.20;;;;;;;;;;5046428;28;20901;-66
2022/08/22 03:18:24;;;;;;;5.57;1.23;;;;;;;;;;5053950;28;20037;-67
2022/08/22 03:20:59;;;;;;;3.88;1.30;;;;;;;;;;5050289;28;20032;-66
2022/08/22 03:23:25;;;;;;;7.15;1.30;;;;;;;;;;5052215;28;20047;-66
2022/08/22 03:25:55;;;;;;;4.05;1.33;;;;;;;;;;5056064;28;20105;-66
2022/08/22 03:28:36;;;;;;;5.10;1.30;;;;;;;;;;5052537;28;20508;-67
2022/08/22 03:31:13;;;;;;;4.72;1.25;;;;;;;;;;5058315;28;20082;-66
2022/08/22 03:33:39;;;;;;;4.68;1.25;;;;;;;;;;5053986;28;20051;-66
2022/08/22 03:36:23;;;;;;;5.32;1.35;;;;;;;;;;5052822;28;20092;-66
2022/08/22 03:39:00;;;;;;;4.90;1.30;;;;;;;;;;5050038;28;20185;-67
2022/08/22 03:41:37;;;;;;;6.20;1.30;;;;;;;;;;5051384;28;20488;-66
2022/08/22 03:44:18;;;;;;;4.07;1.23;;;;;;;;;;5055854;28;20032;-66
2022/08/22 03:47:02;;;;;;;5.93;1.20;;;;;;;;;;5054342;28;20044;-66
2022/08/22 03:49:34;;;;;;;4.53;1.23;;;;;;;;;;5056668;28;20040;-66
2022/08/22 03:52:01;;;;;;;6.28;1.40;;;;;;;;;;5056748;28;20033;-66
2022/08/22 03:54:39;;;;;;;8.45;1.50;;;;;;;;;;5049531;28;20029;-66
2022/08/22 03:57:33;;;;;;;4.50;1.20;;;;;;;;;;5058722;28;20110;-66
2022/08/22 03:59:59;;;;;;;6.95;1.38;;;;;;;;;;5057467;28;20036;-67
2022/08/22 04:02:26;;;;;;;5.47;1.40;;;;;;;;;;5057748;28;20158;-67
2022/08/22 04:04:52;;;;;;;5.65;1.50;;;;;;;;;;5056383;28;20024;-66
2022/08/22 04:07:38;;;;;;;4.10;1.30;;;;;;;;;;5054121;28;20442;-66
2022/08/22 04:10:19;;;;;;;4.65;1.27;;;;;;;;;;5072352;28;20078;-66
2022/08/22 04:12:54;;;;;;;5.70;1.30;;;;;;;;;;5057671;28;20286;-66
2022/08/22 04:15:39;;;;;;;6.03;1.25;;;;;;;;;;5055630;28;20032;-66
2022/08/22 04:18:05;;;;;;;6.68;1.40;;;;;;;;;;5056922;28;20083;-66
2022/08/22 04:20:50;;;;;;;6.78;1.27;;;;;;;;;;5057079;28;20027;-66
2022/08/22 04:23:42;;;;;;;4.13;1.27;;;;;;;;;;5059538;28;20024;-66
2022/08/22 04:26:28;;;;;;;4.45;1.30;;;;;;;;;;5074378;28;20024;-65
2022/08/22 04:29:01;;;;;;;4.60;1.42;;;;;;;;;;5032802;28;20067;-65
2022/08/22 04:31:32;;;;;;;4.18;1.40;;;;;;;;;;5052999;28;20635;-66
2022/08/22 04:34:15;;;;;;;4.13;1.20;;;;;;;;;;5057652;28;20198;-65
2022/08/22 04:37:04;;;;;;;4.95;1.40;;;;;;;;;;5056003;28;20076;-65
2022/08/22 04:39:37;;;;;;;5.07;1.38;;;;;;;;;;5053787;28;20140;-65
2022/08/22 04:42:23;;;;;;;5.57;1.50;;;;;;;;;;5057162;28;20032;-65
2022/08/22 04:44:52;;;;;;;9.27;1.42;;;;;;;;;;5039077;28;20798;-65
2022/08/22 04:47:18;;;;;;;4.90;1.23;;;;;;;;;;5053935;28;20032;-65
2022/08/22 04:49:48;;;;;;;5.40;1.50;;;;;;;;;;5053268;28;20036;-65
2022/08/22 04:52:14;;;;;;;5.00;1.20;;;;;;;;;;5053514;28;20300;-67
2022/08/22 04:54:40;;;;;;;6.03;1.20;;;;;;;;;;5051917;28;20024;-66
2022/08/22 04:57:25;;;;;;;4.75;1.40;;;;;;;;;;5056932;28;20106;-66
2022/08/22 04:59:57;;;;;;;3.78;1.02;;;;;;;;;;5054195;28;20066;-67
2022/08/22 05:02:26;;;;;;;4.88;1.30;;;;;;;;;;5056699;28;20028;-66
2022/08/22 05:04:59;;;;;;;6.82;1.40;;;;;;;;;;5069052;28;20024;-67
2022/08/22 05:07:41;;;;;;;6.60;1.40;;;;;;;;;;5055260;28;20039;-65
2022/08/22 05:10:17;;;;;;;4.75;1.30;;;;;;;;;;5054653;28;20159;-66
2022/08/22 05:12:45;;;;;;;4.47;1.27;;;;;;;;;;5052411;28;20029;-65
2022/08/22 05:15:31;;;;;;;4.97;1.42;;;;;;;;;;5051902;28;20028;-65
2022/08/22 05:18:02;;;;;;;6.00;1.42;;;;;;;;;;5056626;28;20115;-65
2022/08/22 05:20:29;;;;;;;6.60;1.48;;;;;;;;;;5063159;28;20631;-65
2022/08/22 05:23:02;;;;;;;9.10;1.48;;;;;;;;;;5055595;28;20498;-65
2022/08/22 05:25:30;;;;;;;6.28;1.30;;;;;;;;;;5055577;28;20119;-65
2022/08/22 05:28:19;;;;;;;5.80;1.35;;;;;;;;;;5054977;28;20030;-67
2022/08/22 05:30:46;;;;;;;5.00;1.40;;;;;;;;;;5009104;28;20136;-67
2022/08/22 05:33:24;;;;;;;6.15;1.23;;;;;;;;;;5015036;28;20063;-65
2022/08/22 05:35:52;;;;;;;3.95;1.10;;;;;;;;;;5009415;28;20613;-65
2022/08/22 05:38:21;;;;;;;4.70;1.10;;;;;;;;;;5012693;28;20045;-65
2022/08/22 05:40:53;;;;;;;9.27;1.60;;;;;;;;;;5008356;28;20554;-65
2022/08/22 05:43:21;;;;;;;6.80;1.50;;;;;;;;;;5012170;28;20060;-65
2022/08/22 05:45:48;;;;;;;5.90;1.30;;;;;;;;;;5002516;28;20041;-65
2022/08/22 05:48:22;;;;;;;6.75;1.55;;;;;;;;;;5013354;28;20439;-65
2022/08/22 05:50:52;;;;;;;7.38;1.30;;;;;;;;;;5002186;28;20116;-65
2022/08/22 05:53:29;;;;;;;4.97;1.23;;;;;;;;;;5009854;28;20084;-65
2022/08/22 05:56:11;;;;;;;7.80;1.40;;;;;;;;;;5013366;28;20034;-65
2022/08/22 05:58:42;;;;;;;6.93;1.88;;;;;;;;;;5007248;28;20033;-66
2022/08/22 06:01:27;;;;;;;5.50;1.40;;;;;;;;;;5012734;28;20048;-65
2022/08/22 06:03:58;;;;;;;7.55;1.67;;;;;;;;;;5011633;28;20037;-65
2022/08/22 06:06:26;;;;;;;6.57;1.40;;;;;;;;;;5006941;28;20028;-65
2022/08/22 06:09:00;;;;;;;6.18;1.40;;;;;;;;;;5048329;28;20110;-66
2022/08/22 06:11:35;;;;;;;8.45;1.50;;;;;;;;;;5049292;28;20546;-66
2022/08/22 06:14:19;;;;;;;6.45;1.30;;;;;;;;;;5050975;28;20017;-66
2022/08/22 06:16:48;;;;;;;10.77;1.20;;;;;;;;;;5051088;28;20578;-65
2022/08/22 06:19:16;;;;;;;7.88;1.58;;;;;;;;;;5053958;28;20032;-66
2022/08/22 06:21:44;;;;;;;9.40;1.55;;;;;;;;;;5052867;28;20039;-66
2022/08/22 06:24:15;;;;;;;7.72;1.67;;;;;;;;;;5048847;28;20032;-66
2022/08/22 06:26:43;;;;;;;11.77;1.73;;;;;;;;;;5048424;28;20442;-66
2022/08/22 06:29:13;;;;;;;8.38;1.65;;;;;;;;;;5051251;28;20111;-66
2022/08/22 06:31:43;;;;;;;5.72;1.40;;;;;;;;;;5049727;28;20218;-66
2022/08/22 06:34:29;;;;;;;9.93;1.60;;;;;;;;;;5053258;28;20033;-66
2022/08/22 06:36:56;;;;;;;7.55;2.20;;;;;;;;;;5035910;28;20126;-66
2022/08/22 06:39:37;;;;;;;8.57;1.80;;;;;;;;;;5047137;28;20035;-66
2022/08/22 06:42:08;;;;;;;8.35;1.83;;;;;;;;;;5047105;28;20036;-66
2022/08/22 06:44:40;;;;;;;7.93;1.73;;;;;;;;;;5046207;28;20029;-66
2022/08/22 06:47:09;;;;;;;6.20;1.90;;;;;;;;;;5049706;28;20056;-66
2022/08/22 06:49:36;;;;;;;6.22;1.92;;;;;;;;;;5052033;28;20090;-66
2022/08/22 06:52:05;;;;;;;7.32;1.90;;;;;;;;;;5046613;28;20044;-65
2022/08/22 06:54:34;;;;;;;7.25;1.70;;;;;;;;;;5047353;28;20036;-66
2022/08/22 06:57:01;;;;;;;6.40;1.75;;;;;;;;;;5052158;28;20106;-67
2022/08/22 06:59:29;;;;;;;7.18;1.90;;;;;;;;;;5045790;28;20051;-66
2022/08/22 07:02:21;;;;;;;6.28;1.52;;;;;;;;;;5050346;28;20036;-66
2022/08/22 07:04:48;;;;;;;6.03;1.90;;;;;;;;;;5044849;28;20041;-66
2022/08/22 07:07:17;;;;;;;6.18;1.77;;;;;;;;;;5056658;28;20028;-66
2022/08/22 07:09:43;;;;;;;5.55;1.50;;;;;;;;;;5056712;28;20430;-66
2022/08/22 07:12:11;;;;;;;5.70;1.60;;;;;;;;;;5062361;28;20503;-66
2022/08/22 07:14:44;;;;;;;5.25;1.50;;;;;;;;;;5056484;28;20036;-66
2022/08/22 07:17:20;;;;;;;6.63;1.52;;;;;;;;;;5056677;28;20307;-66
2022/08/22 07:19:48;;;;;;;5.28;1.30;;;;;;;;;;5066719;28;20032;-66
2022/08/22 07:22:16;;;;;;;5.50;1.58;;;;;;;;;;5052525;28;20787;-66
2022/08/22 07:24:46;;;;;;;5.18;1.15;;;;;;;;;;5053977;28;20364;-65
2022/08/22 07:27:18;;;;;;;6.43;1.52;;;;;;;;;;5060944;28;20695;-67
2022/08/22 07:30:03;;;;;;;7.45;1.60;;;;;;;;;;5049735;28;20039;-67
2022/08/22 07:32:40;;;;;;;9.27;1.67;;;;;;;;;;5068330;28;20381;-67
2022/08/22 07:35:10;;;;;;;6.40;1.65;;;;;;;;;;5048445;28;20032;-67
2022/08/22 07:37:59;;;;;;;5.53;1.50;;;;;;;;;;5048564;28;20476;-67
2022/08/22 07:40:26;;;;;;;8.50;1.75;;;;;;;;;;5053526;28;20551;-67
2022/08/22 07:42:52;;;;;;;4.82;1.30;;;;;;;;;;5051604;28;20467;-67
2022/08/22 07:45:26;;;;;;;5.68;1.48;;;;;;;;;;5048829;28;20029;-67
2022/08/22 07:48:04;;;;;;;5.05;1.50;;;;;;;;;;5053909;28;20442;-67
2022/08/22 07:50:33;;;;;;;5.57;1.33;;;;;;;;;;5050133;28;20086;-67
2022/08/22 07:53:17;;;;;;;5.82;1.52;;;;;;;;;;5049197;28;20051;-67
2022/08/22 07:55:44;;;;;;;8.00;1.30;;;;;;;;;;5057123;28;20289;-67
2022/08/22 07:58:12;;;;;;;7.28;1.40;;;;;;;;;;5052862;28;20027;-67
2022/08/22 08:00:43;;;;;;;7.50;1.60;;;;;;;;;;5050868;28;20027;-67
2022/08/22 08:03:10;;;;;;;4.95;1.60;;;;;;;;;;5059457;28;20251;-67
2022/08/22 08:05:37;;;;;;;7.10;1.60;;;;;;;;;;5053085;28;20088;-67
2022/08/22 08:08:07;;;;;;;5.68;1.40;;;;;;;;;;5055894;28;20033;-67
2022/08/22 08:10:34;;;;;;;5.38;1.30;;;;;;;;;;5051829;28;20494;-67
2022/08/22 08:13:03;;;;;;;5.78;1.50;;;;;;;;;;5061394;28;20389;-67
2022/08/22 08:15:30;;;;;;;5.78;1.30;;;;;;;;;;5054210;28;20025;-67
2022/08/22 08:17:59;;;;;;;5.93;1.40;;;;;;;;;;5062189;28;20024;-67
2022/08/22 08:20:28;;;;;;;6.63;1.30;;;;;;;;;;5049729;28;20028;-67
2022/08/22 08:22:55;;;;;;;5.30;1.40;;;;;;;;;;5056450;28;20128;-67
2022/08/22 08:25:24;;;;;;;6.72;1.35;;;;;;;;;;5060236;28;20035;-67
2022/08/22 08:30:58;;;;;;;5.50;1.57;;;;;;;;;;5056362;28;20730;-66
2022/08/22 08:33:27;;;;;;;6.03;1.85;;;;;;;;;;5053649;28;20025;-66
2022/08/22 08:36:04;;;;;;;8.15;1.70;;;;;;;;;;5070664;28;20032;-66
2022/08/22 08:38:56;;;;;;;5.68;1.50;;;;;;;;;;5061083;28;20028;-66
2022/08/22 08:41:28;;;;;;;5.25;1.40;;;;;;;;;;5029193;28;20139;-66
2022/08/22 08:43:59;;;;;;;5.53;1.50;;;;;;;;;;5054467;28;20047;-66
2022/08/22 08:46:51;;;;;;;7.88;1.52;;;;;;;;;;5057124;28;20036;-66
2022/08/22 08:49:23;;;;;;;4.88;1.30;;;;;;;;;;5049399;28;20051;-66
2022/08/22 08:51:59;;;;;;;6.25;1.45;;;;;;;;;;5051840;28;20557;-66
2022/08/22 08:54:28;;;;;;;4.88;1.40;;;;;;;;;;5067029;28;20036;-67
2022/08/22 08:57:17;;;;;;;7.45;1.35;;;;;;;;;;5071913;28;20056;-66
2022/08/22 09:00:02;;;;;;;4.50;1.38;;;;;;;;;;5046454;28;20044;-66
2022/08/22 09:02:48;;;;;;;7.55;1.42;;;;;;;;;;5050734;28;20142;-66
2022/08/22 09:05:32;;;;;;;6.78;1.40;;;;;;;;;;5052440;28;20111;-66
2022/08/22 09:08:16;;;;;;;6.85;1.20;;;;;;;;;;5060443;28;20550;-66
2022/08/22 09:10:43;;;;;;;7.70;1.45;;;;;;;;;;5054909;28;20040;-66
2022/08/22 09:13:18;;;;;;;6.30;1.33;;;;;;;;;;5053353;28;20462;-66
2022/08/22 09:15:59;;;;;;;5.18;1.33;;;;;;;;;;5046897;28;20058;-66
2022/08/22 09:18:44;;;;;;;4.30;1.23;;;;;;;;;;5071407;28;20429;-66
2022/08/22 09:21:29;;;;;;;3.80;1.10;;;;;;;;;;5052457;28;20114;-66
2022/08/22 09:23:55;;;;;;;5.75;1.30;;;;;;;;;;5054251;28;20043;-66
2022/08/22 09:26:30;;;;;;;5.00;1.42;;;;;;;;;;5052092;28;20115;-67
2022/08/22 09:29:06;;;;;;;6.47;1.42;;;;;;;;;;5051100;28;20700;-67
2022/08/22 09:31:39;;;;;;;6.80;1.75;;;;;;;;;;5048275;28;20134;-67
2022/08/22 09:34:16;;;;;;;7.55;1.60;;;;;;;;;;5051001;28;20197;-66
2022/08/22 09:36:45;;;;;;;6.25;1.40;;;;;;;;;;5052336;28;20397;-67
2022/08/22 09:39:28;;;;;;;6.03;1.50;;;;;;;;;;5046560;28;20471;-67
2022/08/22 09:42:30;;;;;;;3.38;0.98;;;;;;;;;;5053147;28;20034;-67
2022/08/22 09:44:59;;;;;;;5.28;1.42;;;;;;;;;;4989765;28;20044;-66
2022/08/22 09:47:38;;;;;;;5.72;1.35;;;;;;;;;;4994501;28;20112;-66
2022/08/22 09:50:19;;;;;;;5.53;1.30;;;;;;;;;;4990672;28;20034;-66
2022/08/22 09:52:48;;;;;;;4.78;1.20;;;;;;;;;;4991315;28;20169;-67
2022/08/22 09:55:17;;;;;;;7.47;1.60;;;;;;;;;;4994615;28;20027;-66
2022/08/22 09:57:50;;;;;;;7.32;1.30;;;;;;;;;;4990410;28;20144;-66
2022/08/22 10:00:16;;;;;;;6.10;1.38;;;;;;;;;;4993243;28;20049;-67
2022/08/22 10:02:45;;;;;;;5.00;1.58;;;;;;;;;;4988598;28;20052;-66
2022/08/22 10:05:26;;;;;;;7.40;2.08;;;;;;;;;;4991825;28;20050;-67
2022/08/22 10:08:11;;;;;;;10.05;2.10;;;;;;;;;;4996085;28;20055;-67
2022/08/22 10:10:37;;;;;;;8.07;1.77;;;;;;;;;;4989153;28;20064;-67
2022/08/22 10:13:17;;;;;;;7.07;1.67;;;;;;;;;;4991881;28;20084;-66
2022/08/22 10:15:55;;;;;;;8.25;2.03;;;;;;;;;;4997997;28;20036;-67
2022/08/22 10:18:50;;;;;;;7.72;1.88;;;;;;;;;;5005135;28;20047;-67
2022/08/22 10:21:22;;;;;;;9.18;2.05;;;;;;;;;;5015226;28;20048;-67
2022/08/22 10:24:00;;;;;;;6.45;1.52;;;;;;;;;;5027304;28;20098;-65
2022/08/22 10:26:41;;;;;;;7.10;1.90;;;;;;;;;;5027316;28;20135;-68
2022/08/22 10:29:16;;;;;;;9.52;1.67;;;;;;;;;;5028955;28;20037;-65
2022/08/22 10:31:58;;;;;;;7.68;1.60;;;;;;;;;;5030105;28;20048;-67
2022/08/22 10:34:28;;;;;;;7.65;1.90;;;;;;;;;;5030477;28;20060;-66
2022/08/22 10:36:54;;;;;;;10.27;1.90;;;;;;;;;;5028459;28;20036;-65
2022/08/22 10:39:31;;;;;;;9.15;2.03;;;;;;;;;;5027099;28;20037;-67
2022/08/22 10:42:07;;;;;;;6.78;1.67;;;;;;;;;;5033928;28;20630;-66
2022/08/22 10:44:40;;;;;;;6.30;1.55;;;;;;;;;;5030594;28;20089;-66
2022/08/22 10:47:11;;;;;;;4.97;1.27;;;;;;;;;;5026735;28;20083;-66
2022/08/22 10:49:50;;;;;;;11.45;1.80;;;;;;;;;;5030203;28;20124;-66
2022/08/22 10:52:22;;;;;;;7.20;1.75;;;;;;;;;;5016784;28;20107;-67
2022/08/22 10:54:55;;;;;;;7.80;1.90;;;;;;;;;;5008262;28;20036;-66
2022/08/22 10:57:21;;;;;;;7.63;1.90;;;;;;;;;;5035834;28;20391;-66
2022/08/22 10:59:57;;;;;;;7.53;1.77;;;;;;;;;;5044525;28;20052;-67
2022/08/22 11:02:29;;;;;;;7.15;1.73;;;;;;;;;;5055926;28;20025;-66
2022/08/22 11:05:06;;;;;;;6.47;1.60;;;;;;;;;;5061029;28;20147;-66
2022/08/22 11:07:36;;;;;;;7.30;1.60;;;;;;;;;;5054267;28;20093;-66
2022/08/22 11:10:04;;;;;;;8.52;1.80;;;;;;;;;;5054207;28;20398;-66
2022/08/22 11:12:42;;;;;;;7.38;1.90;;;;;;;;;;5056426;28;20079;-66
2022/08/22 11:15:17;;;;;;;10.05;2.13;;;;;;;;;;5058816;28;20024;-66
2022/08/22 11:17:43;;;;;;;;;;;;;;;;;;5049668;28;20041;-66
2022/08/22 11:20:18;;;;;;;10.15;2.00;;;;;;;;;;5054360;28;20060;-66
2022/08/22 11:22:47;;;;;;;7.05;1.80;;;;;;;;;;5065333;28;20480;-66
2022/08/22 11:25:17;;;;;;;8.07;1.98;;;;;;;;;;5055354;28;20033;-66
2022/08/22 11:27:55;;;;;;;8.82;1.88;;;;;;;;;;5051425;28;20033;-66
2022/08/22 11:30:27;;;;;;;8.90;1.88;;;;;;;;;;5050077;28;20650;-66
2022/08/22 11:33:00;;;;;;;7.32;1.77;;;;;;;;;;5055938;28;20529;-67
2022/08/22 11:35:31;;;;;;;9.45;2.45;;;;;;;;;;5055307;28;20039;-68
2022/08/22 11:38:03;;;;;;;8.98;2.20;;;;;;;;;;5052382;28;20352;-68
2022/08/22 11:40:36;;;;;;;8.20;2.28;;;;;;;;;;5043380;28;20055;-66
2022/08/22 11:43:21;;;;;;;8.57;1.98;;;;;;;;;;5050133;28;20024;-66
2022/08/22 11:45:49;;;;;;;8.13;1.73;;;;;;;;;;5048291;28;20405;-67
2022/08/22 11:48:34;;;;;;;10.05;2.80;;;;;;;;;;5054418;28;20039;-70
2022/08/22 11:51:00;;;;;;;7.88;1.90;;;;;;;;;;5065975;28;20537;-68
2022/08/22 11:53:26;;;;;;;11.35;1.80;;;;;;;;;;5052642;28;20048;-68
2022/08/22 11:55:52;;;;;;;7.65;2.10;;;;;;;;;;5055324;28;20475;-68
2022/08/22 11:58:21;;;;;;;7.95;1.60;;;;;;;;;;5053894;28;20082;-67
2022/08/22 12:00:47;;;;;;;8.82;1.58;;;;;;;;;;5053135;28;20394;-69
2022/08/22 12:03:19;;;;;;;6.30;1.33;;;;;;;;;;5057453;28;20699;-68
2022/08/22 12:05:51;;;;;;;5.65;1.17;;;;;;;;;;5052788;28;20036;-67
2022/08/22 12:08:23;;;;;;;6.32;1.60;;;;;;;;;;5056850;28;20020;-67
2022/08/22 12:11:07;;;;;;;5.47;1.20;;;;;;;;;;5055926;28;20039;-68
2022/08/22 12:13:45;;;;;;;7.05;1.45;;;;;;;;;;5051230;28;20866;-68
2022/08/22 12:16:18;;;;;;;7.95;2.22;;;;;;;;;;5051731;28;20031;-67
2022/08/22 12:18:47;;;;;;;8.65;1.92;;;;;;;;;;5045068;28;20032;-67
2022/08/22 12:21:16;;;;;;;5.88;1.40;;;;;;;;;;5050492;28;20037;-68
2022/08/22 12:23:48;;;;;;;12.70;2.10;;;;;;;;;;5048275;28;20039;-67
2022/08/22 12:26:26;;;;;;;9.18;2.03;;;;;;;;;;5053849;28;20475;-67
2022/08/22 12:28:52;;;;;;;12.38;2.40;;;;;;;;;;5048930;28;20021;-68
2022/08/22 12:31:37;;;;;;;7.90;2.15;;;;;;;;;;5055486;28;20025;-68
2022/08/22 12:34:12;;;;;;;8.07;2.10;;;;;;;;;;5054141;28;20646;-66
2022/08/22 12:36:41;;;;;;;8.57;2.13;;;;;;;;;;5054541;28;20028;-66
2022/08/22 12:39:36;;;;;;;8.45;2.10;;;;;;;;;;5049531;28;20039;-66
2022/08/22 12:42:27;;;;;;;8.00;2.17;;;;;;;;;;5049346;28;20028;-66
2022/08/22 12:45:12;;;;;;;10.85;2.15;;;;;;;;;;5048794;28;20033;-66
2022/08/22 12:47:50;;;;;;;8.30;1.88;;;;;;;;;;5041272;28;20078;-67
2022/08/22 12:50:16;;;;;;;7.90;2.00;;;;;;;;;;5055335;28;20020;-66
2022/08/22 12:52:51;;;;;;;7.03;2.00;;;;;;;;;;5053447;28;20049;-66
2022/08/22 12:55:17;;;;;;;10.77;2.53;;;;;;;;;;5053269;28;20032;-67
2022/08/22 12:58:02;;;;;;;10.45;2.65;;;;;;;;;;5056056;28;20028;-66
2022/08/22 13:00:33;;;;;;;8.23;2.10;;;;;;;;;;5048911;28;20456;-65
2022/08/22 13:03:03;;;;;;;9.32;2.30;;;;;;;;;;5059215;28;20032;-66
2022/08/22 13:05:30;;;;;;;7.90;1.98;;;;;;;;;;5050363;28;20301;-65
2022/08/22 13:07:59;;;;;;;8.50;2.08;;;;;;;;;;5057922;28;20048;-65
2022/08/22 13:10:29;;;;;;;8.25;2.00;;;;;;;;;;5052997;28;20087;-65
2022/08/22 13:12:57;;;;;;;9.55;2.20;;;;;;;;;;5052476;28;20059;-65
2022/08/22 13:15:28;;;;;;;11.10;1.95;;;;;;;;;;5055042;28;20027;-65
2022/08/22 13:17:54;;;;;;;13.18;2.60;;;;;;;;;;5053187;28;20033;-65
2022/08/22 13:20:26;;;;;;;11.88;2.55;;;;;;;;;;5056262;28;20055;-65
2022/08/22 13:22:52;;;;;;;9.02;2.20;;;;;;;;;;5058756;28;20042;-65
2022/08/22 13:25:22;;;;;;;8.60;1.90;;;;;;;;;;5053533;28;20040;-66
2022/08/22 13:27:50;;;;;;;9.32;1.90;;;;;;;;;;5052322;28;20036;-66
2022/08/22 13:30:19;;;;;;;7.68;2.00;;;;;;;;;;5055701;28;20033;-66
2022/08/22 13:32:47;;;;;;;8.20;2.50;;;;;;;;;;5056554;28;22699;-66
2022/08/22 13:35:31;;;;;;;10.75;2.05;;;;;;;;;;5057260;28;20016;-66
2022/08/22 13:38:04;;;;;;;10.02;2.10;;;;;;;;;;5058779;28;20104;-65
2022/08/22 13:40:31;;;;;;;9.68;2.25;;;;;;;;;;5048188;28;20070;-65
2022/08/22 13:43:04;;;;;;;9.13;2.08;;;;;;;;;;5057066;28;20122;-65
2022/08/22 13:45:32;;;;;;;8.75;1.98;;;;;;;;;;5056206;28;20036;-65
2022/08/22 13:47:59;;;;;;;12.60;2.42;;;;;;;;;;5056158;28;20299;-67
2022/08/22 13:50:28;;;;;;;10.85;2.17;;;;;;;;;;5055502;28;20036;-67
2022/08/22 13:53:00;;;;;;;9.70;2.38;;;;;;;;;;5054167;28;20590;-67
2022/08/22 13:55:29;;;;;;;14.68;2.47;;;;;;;;;;5050227;28;20399;-67
2022/08/22 13:58:01;;;;;;;10.93;2.78;;;;;;;;;;5049617;28;20040;-67
2022/08/22 14:00:27;;;;;;;10.73;2.40;;;;;;;;;;5054559;28;20055;-67
2022/08/22 14:02:53;;;;;;;10.93;2.38;;;;;;;;;;5058546;28;20024;-66
2022/08/22 14:05:32;;;;;;;7.03;1.90;;;;;;;;;;5053926;28;20070;-66
2022/08/22 14:08:16;;;;;;;8.50;2.40;;;;;;;;;;5055317;28;20032;-66
2022/08/22 14:10:45;;;;;;;10.80;2.35;;;;;;;;;;5054581;28;20036;-66
2022/08/22 14:13:11;;;;;;;9.05;2.58;;;;;;;;;;5053623;28;20451;-66
2022/08/22 14:15:38;;;;;;;8.20;1.92;;;;;;;;;;5052025;28;20382;-65
2022/08/22 14:18:12;;;;;;;11.52;2.50;;;;;;;;;;5059656;28;20040;-66
2022/08/22 14:20:40;;;;;;;9.35;2.58;;;;;;;;;;5052464;28;20512;-68
2022/08/22 14:23:08;;;;;;;9.43;2.13;;;;;;;;;;5057669;28;20037;-67
2022/08/22 14:25:38;;;;;;;8.65;2.20;;;;;;;;;;5050122;28;20028;-66
2022/08/22 14:28:05;;;;;;;8.32;1.98;;;;;;;;;;5056445;28;20185;-68
2022/08/22 14:30:34;;;;;;;9.00;2.30;;;;;;;;;;5054561;28;20034;-68
2022/08/22 14:33:18;;;;;;;9.98;2.10;;;;;;;;;;5057847;28;20025;-66
2022/08/22 14:35:47;;;;;;;9.40;2.40;;;;;;;;;;5054589;28;21281;-68
2022/08/22 14:38:21;;;;;;;10.93;2.28;;;;;;;;;;5054326;28;20206;-67
2022/08/22 14:40:52;;;;;;;9.68;2.30;;;;;;;;;;5049885;28;20059;-65
2022/08/22 14:43:35;;;;;;;11.45;2.80;;;;;;;;;;5056751;28;20086;-65
2022/08/22 14:46:07;;;;;;;10.90;2.75;;;;;;;;;;5058136;28;20140;-66
2022/08/22 14:48:38;;;;;;;9.50;2.42;;;;;;;;;;5051626;28;20040;-68
2022/08/22 14:51:06;;;;;;;9.70;2.47;;;;;;;;;;5053115;28;20039;-66
2022/08/22 14:53:36;;;;;;;9.38;2.30;;;;;;;;;;5045986;28;20098;-68
2022/08/22 14:56:13;;;;;;;10.23;2.38;;;;;;;;;;5056546;28;20120;-68
2022/08/22 14:58:56;;;;;;;7.97;2.20;;;;;;;;;;5051724;28;20024;-70
2022/08/22 15:01:23;;;;;;;9.68;2.40;;;;;;;;;;5058989;28;20028;-71
2022/08/22 15:04:09;;;;;;;10.43;2.45;;;;;;;;;;5068662;28;20060;-70
2022/08/22 15:06:35;;;;;;;8.45;2.15;;;;;;;;;;5050670;28;20039;-70
2022/08/22 15:09:05;;;;;;;13.88;2.30;;;;;;;;;;5053231;28;20421;-70
2022/08/22 15:11:32;;;;;;;9.75;2.38;;;;;;;;;;5052243;28;20063;-70
2022/08/22 15:14:02;;;;;;;9.32;2.08;;;;;;;;;;5056668;28;20340;-70
2022/08/22 15:16:31;;;;;;;12.60;2.30;;;;;;;;;;5055405;28;20040;-70
2022/08/22 15:18:57;;;;;;;11.25;2.45;;;;;;;;;;5056621;28;20046;-70
2022/08/22 15:21:23;;;;;;;8.55;2.53;;;;;;;;;;5050055;28;20071;-70
2022/08/22 15:23:51;;;;;;;8.68;1.92;;;;;;;;;;5050787;28;20035;-70
2022/08/22 15:26:28;;;;;;;10.65;2.40;;;;;;;;;;5057259;28;20032;-69